createdAt,value
2023-02-16T00:02:30.116Z,2.19
2023-02-16T00:05:34.359Z,2.19
2023-02-16T00:08:35.907Z,2.20
2023-02-16T00:11:56.297Z,2.21
2023-02-16T00:14:58.341Z,2.19
2023-02-16T00:18:02.866Z,2.18
2023-02-16T00:21:04.667Z,2.21
2023-02-16T00:24:06.703Z,2.21
2023-02-16T00:27:16.171Z,2.22
2023-02-16T00:30:21.015Z,2.23
2023-02-16T00:33:22.976Z,2.22
2023-02-16T00:36:25.195Z,2.25
2023-02-16T00:39:27.330Z,2.24
2023-02-16T00:42:32.890Z,2.25
2023-02-16T00:45:37.776Z,2.23
2023-02-16T00:48:39.262Z,2.21
2023-02-16T00:51:40.972Z,2.18
2023-02-16T00:54:42.510Z,2.16
2023-02-16T00:57:44.014Z,2.17
2023-02-16T01:00:55.299Z,2.14
2023-02-16T01:04:02.245Z,2.13
2023-02-16T01:07:30.848Z,2.12
2023-02-16T01:10:53.837Z,2.12
2023-02-16T01:13:56.567Z,2.10
2023-02-16T01:16:58.562Z,2.10
2023-02-16T01:20:00.124Z,2.09
2023-02-16T01:23:01.688Z,2.09
2023-02-16T01:26:04.008Z,2.09
2023-02-16T01:29:05.540Z,2.07
2023-02-16T01:32:07.195Z,2.06
2023-02-16T01:35:10.285Z,2.04
2023-02-16T01:38:21.929Z,2.04
2023-02-16T01:41:40.436Z,2.05
2023-02-16T01:44:59.503Z,2.02
2023-02-16T01:48:07.234Z,2.01
2023-02-16T01:51:26.814Z,1.99
2023-02-16T01:54:43.225Z,1.98
2023-02-16T01:57:55.084Z,1.97
2023-02-16T02:01:53.050Z,1.95
2023-02-16T02:05:18.685Z,1.94
2023-02-16T02:08:20.409Z,1.93
2023-02-16T02:11:31.327Z,1.94
2023-02-16T02:14:38.576Z,1.95
2023-02-16T02:17:40.160Z,1.96
2023-02-16T02:21:21.873Z,1.97
2023-02-16T02:24:44.521Z,1.98
2023-02-16T02:28:08.002Z,1.97
2023-02-16T02:31:33.286Z,1.98
2023-02-16T02:34:40.886Z,1.98
2023-02-16T02:37:56.296Z,1.97
2023-02-16T02:41:08.276Z,1.98
2023-02-16T02:44:11.039Z,1.97
2023-02-16T02:47:12.735Z,1.95
2023-02-16T02:51:06.752Z,1.94
2023-02-16T02:54:43.007Z,1.94
2023-02-16T02:58:12.460Z,1.94
2023-02-16T03:01:18.781Z,1.94
2023-02-16T03:04:27.553Z,1.93
2023-02-16T03:07:47.248Z,1.93
2023-02-16T03:11:12.312Z,1.91
2023-02-16T03:14:26.448Z,1.91
2023-02-16T03:17:55.017Z,1.90
2023-02-16T03:21:15.608Z,1.91
2023-02-16T03:24:42.983Z,1.89
2023-02-16T03:28:03.969Z,1.87
2023-02-16T03:31:08.255Z,1.85
2023-02-16T03:34:10.468Z,1.84
2023-02-16T03:37:13.314Z,1.85
2023-02-16T03:40:29.782Z,1.83
2023-02-16T03:43:32.115Z,1.81
2023-02-16T03:46:34.294Z,1.79
2023-02-16T03:49:35.787Z,1.79
2023-02-16T03:52:37.537Z,1.77
2023-02-16T03:55:47.932Z,1.75
2023-02-16T03:58:49.510Z,1.73
2023-02-16T04:01:51.904Z,1.71
2023-02-16T04:04:53.554Z,1.70
2023-02-16T04:07:55.646Z,1.69
2023-02-16T04:10:57.660Z,1.68
2023-02-16T04:13:59.270Z,1.65
2023-02-16T04:17:01.022Z,1.65
2023-02-16T04:20:02.808Z,1.65
2023-02-16T04:23:04.478Z,1.64
2023-02-16T04:26:06.033Z,1.63
2023-02-16T04:29:07.606Z,1.62
2023-02-16T04:32:09.575Z,1.62
2023-02-16T04:35:11.384Z,1.61
2023-02-16T04:38:12.913Z,1.59
2023-02-16T04:41:14.440Z,1.58
2023-02-16T04:44:15.989Z,1.58
2023-02-16T04:47:17.697Z,1.58
2023-02-16T04:50:19.405Z,1.57
2023-02-16T04:53:20.922Z,1.56
2023-02-16T04:56:22.991Z,1.56
2023-02-16T04:59:24.780Z,1.57
2023-02-16T05:02:26.402Z,1.57
2023-02-16T05:05:28.003Z,1.56
2023-02-16T05:08:30.234Z,1.56
2023-02-16T05:11:50.986Z,1.56
2023-02-16T05:14:52.536Z,1.56
2023-02-16T05:17:54.064Z,1.56
2023-02-16T05:21:14.230Z,1.57
2023-02-16T05:24:15.773Z,1.57
2023-02-16T05:27:20.136Z,1.57
2023-02-16T05:30:21.714Z,1.57
2023-02-16T05:33:23.568Z,1.60
2023-02-16T05:36:25.579Z,1.62
2023-02-16T05:39:27.419Z,1.78
2023-02-16T05:42:28.955Z,2.15
2023-02-16T05:45:30.540Z,2.25
2023-02-16T05:48:32.086Z,2.27
2023-02-16T05:51:34.379Z,2.24
2023-02-16T05:54:36.379Z,2.23
2023-02-16T05:57:37.941Z,2.21
2023-02-16T06:00:39.489Z,2.19
2023-02-16T06:03:41.329Z,2.17
2023-02-16T06:06:43.930Z,2.16
2023-02-16T06:09:45.537Z,2.16
2023-02-16T06:12:47.169Z,2.17
2023-02-16T06:15:53.023Z,2.18
2023-02-16T06:18:54.882Z,2.20
2023-02-16T06:21:56.494Z,2.21
2023-02-16T06:24:58.074Z,2.20
2023-02-16T06:27:59.951Z,2.22
2023-02-16T06:31:01.563Z,2.23
2023-02-16T06:34:03.931Z,2.27
2023-02-16T06:37:05.788Z,2.28
2023-02-16T06:40:09.997Z,2.30
2023-02-16T06:43:11.607Z,2.31
2023-02-16T06:46:13.163Z,2.32
2023-02-16T06:49:19.902Z,2.32
2023-02-16T06:52:21.942Z,2.35
2023-02-16T06:55:23.608Z,2.37
2023-02-16T06:58:25.192Z,2.38
2023-02-16T07:01:26.740Z,2.39
2023-02-16T07:04:28.420Z,2.42
2023-02-16T07:07:31.327Z,2.43
2023-02-16T07:10:48.637Z,2.46
2023-02-16T07:13:51.267Z,2.45
2023-02-16T07:16:52.830Z,2.47
2023-02-16T07:19:54.448Z,2.49
2023-02-16T07:22:56.298Z,2.52
2023-02-16T07:25:57.929Z,2.55
2023-02-16T07:28:59.526Z,2.57
2023-02-16T07:32:02.365Z,2.60
2023-02-16T07:35:04.913Z,2.61
2023-02-16T07:38:06.694Z,2.64
2023-02-16T07:41:09.901Z,2.66
2023-02-16T07:44:11.950Z,2.70
2023-02-16T07:47:14.518Z,2.73
2023-02-16T07:50:16.590Z,2.76
2023-02-16T07:53:18.760Z,2.79
2023-02-16T07:56:26.247Z,2.82
2023-02-16T07:59:27.782Z,2.86
2023-02-16T08:02:29.486Z,2.88
2023-02-16T08:05:31.178Z,2.92
2023-02-16T08:08:33.534Z,2.95
2023-02-16T08:11:35.070Z,3.04
2023-02-16T08:14:37.643Z,3.22
2023-02-16T08:17:39.421Z,3.27
2023-02-16T08:21:01.424Z,3.28
2023-02-16T08:24:06.030Z,3.30
2023-02-16T08:27:07.624Z,3.31
2023-02-16T08:30:12.865Z,3.33
2023-02-16T08:33:14.557Z,3.35
2023-02-16T08:36:28.247Z,3.37
2023-02-16T08:39:32.880Z,3.37
2023-02-16T08:42:34.423Z,3.39
2023-02-16T08:45:36.004Z,3.40
2023-02-16T08:48:38.506Z,3.41
2023-02-16T08:51:49.588Z,3.45
2023-02-16T08:54:51.254Z,3.45
2023-02-16T08:57:52.784Z,3.48
2023-02-16T09:00:54.438Z,3.50
2023-02-16T09:03:56.103Z,3.55
2023-02-16T09:06:59.490Z,3.58
2023-02-16T09:10:03.544Z,3.62
2023-02-16T09:13:05.224Z,3.64
2023-02-16T09:16:10.198Z,3.67
2023-02-16T09:19:14.976Z,3.71
2023-02-16T09:22:16.565Z,3.76
2023-02-16T09:25:18.126Z,3.80
2023-02-16T09:28:20.678Z,3.86
2023-02-16T09:31:29.059Z,3.92
2023-02-16T09:34:30.703Z,3.96
2023-02-16T09:37:32.813Z,4.01
2023-02-16T09:40:36.659Z,4.13
2023-02-16T09:43:54.535Z,4.42
2023-02-16T09:46:58.842Z,4.51
2023-02-16T09:50:06.424Z,4.55
2023-02-16T09:53:30.272Z,4.57
2023-02-16T09:56:38.136Z,4.61
2023-02-16T10:00:08.644Z,4.66
2023-02-16T10:03:25.577Z,4.67
2023-02-16T10:06:34.270Z,4.69
2023-02-16T10:09:37.156Z,4.72
2023-02-16T10:12:43.831Z,4.73
2023-02-16T10:15:46.089Z,4.77
2023-02-16T10:18:50.598Z,4.78
2023-02-16T10:21:58.803Z,4.81
2023-02-16T10:25:12.060Z,4.82
2023-02-16T10:28:32.638Z,4.85
2023-02-16T10:31:43.907Z,4.89
2023-02-16T10:35:11.779Z,4.89
2023-02-16T10:38:20.579Z,4.93
2023-02-16T10:41:33.014Z,4.94
2023-02-16T10:44:43.679Z,4.97
2023-02-16T10:47:46.142Z,5.00
2023-02-16T10:51:09.765Z,5.03
2023-02-16T10:54:19.217Z,5.05
2023-02-16T10:57:31.017Z,5.09
2023-02-16T11:00:51.927Z,5.14
2023-02-16T11:03:54.439Z,5.17
2023-02-16T11:07:23.577Z,5.20
2023-02-16T11:10:53.280Z,5.21
2023-02-16T11:14:04.706Z,5.23
2023-02-16T11:17:14.623Z,5.26
2023-02-16T11:20:50.771Z,5.27
2023-02-16T11:24:02.196Z,5.29
2023-02-16T11:27:13.474Z,5.30
2023-02-16T11:30:22.675Z,5.31
2023-02-16T11:33:27.655Z,5.32
2023-02-16T11:36:35.462Z,5.32
2023-02-16T11:39:40.946Z,5.35
2023-02-16T11:42:48.291Z,5.36
2023-02-16T11:46:07.988Z,5.38
2023-02-16T11:49:42.314Z,5.39
2023-02-16T11:52:43.980Z,5.38
2023-02-16T11:55:48.130Z,5.39
2023-02-16T11:59:14.643Z,5.40
2023-02-16T12:02:34.776Z,5.40
2023-02-16T12:06:08.046Z,5.40
2023-02-16T12:09:31.166Z,5.48
2023-02-16T12:12:38.583Z,5.79
2023-02-16T12:16:15.426Z,5.83
2023-02-16T12:19:42.026Z,5.81
2023-02-16T12:22:50.374Z,5.77
2023-02-16T12:26:23.630Z,5.74
2023-02-16T12:29:28.156Z,5.70
2023-02-16T12:33:15.361Z,5.69
2023-02-16T12:36:55.746Z,5.68
2023-02-16T12:39:57.226Z,5.67
2023-02-16T12:43:20.189Z,5.69
2023-02-16T12:46:28.242Z,5.95
2023-02-16T12:49:55.606Z,6.25
2023-02-16T12:53:22.850Z,6.27
2023-02-16T12:56:33.062Z,6.24
2023-02-16T12:59:46.200Z,6.21
2023-02-16T13:02:53.406Z,6.18
2023-02-16T13:06:14.544Z,6.15
2023-02-16T13:09:35.831Z,6.09
2023-02-16T13:12:43.313Z,6.05
2023-02-16T13:15:53.831Z,6.01
2023-02-16T13:18:57.227Z,6.00
2023-02-16T13:22:22.135Z,6.00
2023-02-16T13:25:44.778Z,5.98
2023-02-16T13:29:02.086Z,5.93
2023-02-16T13:35:57.386Z,5.87
2023-02-16T13:39:38.091Z,5.83
2023-02-16T13:43:24.752Z,5.80
2023-02-16T13:46:32.168Z,5.79
2023-02-16T13:49:43.310Z,5.79
2023-02-16T13:52:45.131Z,5.78
2023-02-16T13:55:48.162Z,5.78
2023-02-16T13:58:52.936Z,5.76
2023-02-16T14:01:55.909Z,5.74
2023-02-16T14:04:57.449Z,5.72
2023-02-16T14:08:19.482Z,5.72
2023-02-16T14:11:21.804Z,5.70
2023-02-16T14:14:43.241Z,5.69
2023-02-16T14:17:45.960Z,5.66
2023-02-16T14:20:59.674Z,5.67
2023-02-16T14:24:03.328Z,5.75
2023-02-16T14:27:13.074Z,5.84
2023-02-16T14:30:21.021Z,5.88
2023-02-16T14:33:41.432Z,5.89
2023-02-16T14:37:17.134Z,5.90
2023-02-16T14:40:21.560Z,5.89
2023-02-16T14:43:25.420Z,5.89
2023-02-16T14:47:11.825Z,5.90
2023-02-16T14:50:46.002Z,5.90
2023-02-16T14:53:47.509Z,5.90
2023-02-16T14:56:54.676Z,5.91
2023-02-16T15:00:02.060Z,5.94
2023-02-16T15:03:17.909Z,5.97
2023-02-16T15:06:42.817Z,5.99
2023-02-16T15:09:47.705Z,6.02
2023-02-16T15:12:49.514Z,6.02
2023-02-16T15:15:56.084Z,6.03
2023-02-16T15:18:58.269Z,6.03
2023-02-16T15:22:18.437Z,6.02
2023-02-16T15:25:25.126Z,6.04
2023-02-16T15:28:29.782Z,6.04
2023-02-16T15:31:37.265Z,6.05
2023-02-16T15:34:41.131Z,6.04
2023-02-16T15:37:42.726Z,6.03
2023-02-16T15:40:45.396Z,6.04
2023-02-16T15:43:49.241Z,6.06
2023-02-16T15:46:52.301Z,6.06
2023-02-16T15:49:55.095Z,6.06
2023-02-16T15:52:56.764Z,6.07
2023-02-16T15:55:58.474Z,6.11
2023-02-16T15:59:03.236Z,6.44
2023-02-16T16:02:11.104Z,6.79
2023-02-16T16:05:28.428Z,6.84
2023-02-16T16:08:31.134Z,6.80
2023-02-16T16:11:33.802Z,6.75
2023-02-16T16:14:39.853Z,6.70
2023-02-16T16:17:41.641Z,6.64
2023-02-16T16:20:44.214Z,6.59
2023-02-16T16:24:07.799Z,6.55
2023-02-16T16:27:12.672Z,6.81
2023-02-16T16:30:20.771Z,6.76
2023-02-16T16:33:22.417Z,6.75
2023-02-16T16:36:29.823Z,6.73
2023-02-16T16:39:38.663Z,6.67
2023-02-16T16:43:07.383Z,6.59
2023-02-16T16:46:19.107Z,6.54
2023-02-16T16:49:20.742Z,6.51
2023-02-16T16:52:31.126Z,6.46
2023-02-16T16:55:34.500Z,6.41
2023-02-16T16:58:36.464Z,6.37
2023-02-16T17:01:38.107Z,6.36
2023-02-16T17:04:39.664Z,6.36
2023-02-16T17:07:41.264Z,6.35
2023-02-16T17:10:43.071Z,6.50
2023-02-16T17:13:44.606Z,6.64
2023-02-16T17:16:48.843Z,6.68
2023-02-16T17:19:50.504Z,6.66
2023-02-16T17:22:52.157Z,6.63
2023-02-16T17:25:55.039Z,6.74
2023-02-16T17:28:56.618Z,6.79
2023-02-16T17:31:58.269Z,6.77
2023-02-16T17:34:59.866Z,6.73
2023-02-16T17:38:26.793Z,6.73
2023-02-16T17:41:29.633Z,6.67
2023-02-16T17:44:31.171Z,6.62
2023-02-16T17:47:32.885Z,6.58
2023-02-16T17:50:34.566Z,6.55
2023-02-16T17:53:36.194Z,6.54
2023-02-16T17:56:41.958Z,6.53
2023-02-16T17:59:43.547Z,6.52
2023-02-16T18:02:45.234Z,6.48
2023-02-16T18:05:46.813Z,6.45
2023-02-16T18:08:48.347Z,6.41
2023-02-16T18:11:51.226Z,6.38
2023-02-16T18:14:52.790Z,6.35
2023-02-16T18:17:55.456Z,6.38
2023-02-16T18:20:57.137Z,6.37
2023-02-16T18:23:58.689Z,6.35
2023-02-16T18:27:00.426Z,6.36
2023-02-16T18:30:02.210Z,6.32
2023-02-16T18:33:03.824Z,6.27
2023-02-16T18:36:06.501Z,6.22
2023-02-16T18:39:09.729Z,6.20
2023-02-16T18:42:11.344Z,6.21
2023-02-16T18:45:12.958Z,6.18
2023-02-16T18:48:14.638Z,6.16
2023-02-16T18:51:17.496Z,6.15
2023-02-16T18:54:19.039Z,6.17
2023-02-16T18:57:22.674Z,6.18
2023-02-16T19:00:24.270Z,6.17
2023-02-16T19:03:26.061Z,6.17
2023-02-16T19:06:27.997Z,6.16
2023-02-16T19:09:29.581Z,6.12
2023-02-16T19:12:31.116Z,6.14
2023-02-16T19:15:33.856Z,6.18
2023-02-16T19:18:35.553Z,6.20
2023-02-16T19:21:38.327Z,6.18
2023-02-16T19:24:40.012Z,6.16
2023-02-16T19:27:41.871Z,6.17
2023-02-16T19:30:43.488Z,6.18
2023-02-16T19:33:45.195Z,6.20
2023-02-16T19:36:46.781Z,6.19
2023-02-16T19:39:48.414Z,6.18
2023-02-16T19:42:50.112Z,6.18
2023-02-16T19:45:52.251Z,6.17
2023-02-16T19:48:54.800Z,6.16
2023-02-16T19:51:56.483Z,6.16
2023-02-16T19:54:58.107Z,6.15
2023-02-16T19:57:59.675Z,6.16
2023-02-16T20:01:21.899Z,6.18
2023-02-16T20:04:23.673Z,6.18
2023-02-16T20:07:25.245Z,6.17
2023-02-16T20:10:28.086Z,6.18
2023-02-16T20:13:29.654Z,6.20
2023-02-16T20:16:31.424Z,6.19
2023-02-16T20:19:32.980Z,6.21
2023-02-16T20:22:34.690Z,6.20
2023-02-16T20:25:39.841Z,6.24
2023-02-16T20:28:41.794Z,6.23
2023-02-16T20:31:54.935Z,6.24
2023-02-16T20:34:56.678Z,6.26
2023-02-16T20:37:58.222Z,6.27
2023-02-16T20:40:59.789Z,6.26
2023-02-16T20:44:02.888Z,6.23
2023-02-16T20:47:04.472Z,6.25
2023-02-16T20:50:06.513Z,6.24
2023-02-16T20:53:08.581Z,6.24
2023-02-16T20:56:17.440Z,6.24
2023-02-16T20:59:18.970Z,6.22
2023-02-16T21:02:20.585Z,6.23
2023-02-16T21:05:22.898Z,6.23
2023-02-16T21:08:24.440Z,6.23
2023-02-16T21:11:26.230Z,6.21
2023-02-16T21:14:28.236Z,6.20
2023-02-16T21:17:29.874Z,6.22
2023-02-16T21:20:31.659Z,6.22
2023-02-16T21:23:33.254Z,6.24
2023-02-16T21:26:34.838Z,6.26
2023-02-16T21:29:36.864Z,6.26
2023-02-16T21:32:38.443Z,6.26
2023-02-16T21:35:39.950Z,6.25
2023-02-16T21:38:42.335Z,6.26
2023-02-16T21:41:43.913Z,6.26
2023-02-16T21:44:49.937Z,6.29
2023-02-16T21:48:09.955Z,6.33
2023-02-16T21:51:13.318Z,6.35
2023-02-16T21:54:18.164Z,6.38
2023-02-16T21:57:19.685Z,6.38
2023-02-16T22:00:21.319Z,6.38
2023-02-16T22:03:22.869Z,6.39
2023-02-16T22:06:26.271Z,6.39
2023-02-16T22:09:27.853Z,6.38
2023-02-16T22:12:29.411Z,6.38
2023-02-16T22:15:31.554Z,6.41
2023-02-16T22:18:33.109Z,6.43
2023-02-16T22:21:37.450Z,6.45
2023-02-16T22:24:39.267Z,6.43
2023-02-16T22:27:41.321Z,6.44
2023-02-16T22:30:44.519Z,6.45
2023-02-16T22:33:47.366Z,6.45
2023-02-16T22:36:49.738Z,6.44
2023-02-16T22:39:52.061Z,6.45
2023-02-16T22:42:53.660Z,6.48
2023-02-16T22:45:55.275Z,6.49
2023-02-16T22:48:58.854Z,6.50
2023-02-16T22:52:00.499Z,6.51
2023-02-16T22:55:02.106Z,6.52
2023-02-16T22:58:03.731Z,6.51
2023-02-16T23:01:14.591Z,6.54
2023-02-16T23:04:16.895Z,6.53
2023-02-16T23:07:18.471Z,6.53
2023-02-16T23:10:20.106Z,6.53
2023-02-16T23:13:21.653Z,6.55
2023-02-16T23:16:25.851Z,6.69
2023-02-16T23:19:27.492Z,6.69
2023-02-16T23:22:30.617Z,6.69
2023-02-16T23:25:34.914Z,6.68
2023-02-16T23:28:38.200Z,6.69
2023-02-16T23:31:42.288Z,6.67
2023-02-16T23:34:44.358Z,6.67
2023-02-16T23:37:46.721Z,6.65
2023-02-16T23:40:57.210Z,6.64
2023-02-16T23:44:00.966Z,6.64
2023-02-16T23:47:02.757Z,6.63
2023-02-16T23:50:04.693Z,6.65
2023-02-16T23:53:06.281Z,6.66
2023-02-16T23:56:12.506Z,6.65
2023-02-16T23:59:14.022Z,6.67
